sensor_id;sensor_type;location;lat;lon;timestamp;pressure;altitude;pressure_sealevel;temperature;humidity
29907;BME280;16776;50.958;10.994;2023-08-31T00:02:03;97680.31;;;13.13;100.00
29907;BME280;16776;50.958;10.994;2023-08-31T00:04:30;97688.34;;;13.09;100.00
29907;BME280;16776;50.958;10.994;2023-08-31T00:06:56;97686.84;;;13.05;100.00
29907;BME280;16776;50.958;10.994;2023-08-31T00:09:25;97688.56;;;13.04;100.00
29907;BME280;16776;50.958;10.994;2023-08-31T00:11:51;97695.81;;;12.97;100.00
29907;BME280;16776;50.958;10.994;2023-08-31T00:14:18;97692.47;;;12.95;100.00
29907;BME280;16776;50.958;10.994;2023-08-31T00:16:45;97682.25;;;12.92;100.00
29907;BME280;16776;50.958;10.994;2023-08-31T00:19:12;97681.53;;;12.90;100.00
29907;BME280;16776;50.958;10.994;2023-08-31T00:21:39;97691.88;;;12.90;100.00
29907;BME280;16776;50.958;10.994;2023-08-31T00:24:06;97685.09;;;12.88;100.00
29907;BME280;16776;50.958;10.994;2023-08-31T00:26:34;97677.34;;;12.88;100.00
29907;BME280;16776;50.958;10.994;2023-08-31T00:29:08;97670.59;;;12.85;100.00
29907;BME280;16776;50.958;10.994;2023-08-31T00:31:36;97674.09;;;12.84;100.00
29907;BME280;16776;50.958;10.994;2023-08-31T00:34:02;97674.16;;;12.83;100.00
29907;BME280;16776;50.958;10.994;2023-08-31T00:36:29;97674.22;;;12.81;100.00
29907;BME280;16776;50.958;10.994;2023-08-31T00:38:56;97675.06;;;12.82;100.00
29907;BME280;16776;50.958;10.994;2023-08-31T00:41:22;97681.06;;;12.82;100.00
29907;BME280;16776;50.958;10.994;2023-08-31T00:43:50;97694.69;;;12.86;100.00
29907;BME280;16776;50.958;10.994;2023-08-31T00:46:17;97701.69;;;12.84;100.00
29907;BME280;16776;50.958;10.994;2023-08-31T00:48:43;97697.34;;;12.84;100.00
29907;BME280;16776;50.958;10.994;2023-08-31T00:51:10;97694.69;;;12.86;100.00
29907;BME280;16776;50.958;10.994;2023-08-31T00:53:37;97700.66;;;12.86;100.00
29907;BME280;16776;50.958;10.994;2023-08-31T00:56:04;97704.09;;;12.87;100.00
29907;BME280;16776;50.958;10.994;2023-08-31T00:58:31;97703.25;;;12.86;100.00
29907;BME280;16776;50.958;10.994;2023-08-31T01:01:04;97705.53;;;12.92;100.00
29907;BME280;16776;50.958;10.994;2023-08-31T01:03:42;97714.22;;;12.91;100.00
29907;BME280;16776;50.958;10.994;2023-08-31T01:06:15;97716.09;;;12.88;100.00
29907;BME280;16776;50.958;10.994;2023-08-31T01:08:49;97719.69;;;12.85;100.00
29907;BME280;16776;50.958;10.994;2023-08-31T01:11:21;97712.16;;;12.81;100.00
29907;BME280;16776;50.958;10.994;2023-08-31T01:13:51;97714.00;;;12.79;100.00
29907;BME280;16776;50.958;10.994;2023-08-31T01:16:23;97713.22;;;12.77;100.00
29907;BME280;16776;50.958;10.994;2023-08-31T01:18:51;97718.63;;;12.72;100.00
29907;BME280;16776;50.958;10.994;2023-08-31T01:21:24;97719.31;;;12.76;100.00
29907;BME280;16776;50.958;10.994;2023-08-31T01:23:53;97707.84;;;12.64;100.00
29907;BME280;16776;50.958;10.994;2023-08-31T01:26:20;97717.03;;;12.70;100.00
29907;BME280;16776;50.958;10.994;2023-08-31T01:28:47;97720.38;;;12.72;100.00
29907;BME280;16776;50.958;10.994;2023-08-31T01:31:14;97718.63;;;12.72;100.00
29907;BME280;16776;50.958;10.994;2023-08-31T01:33:41;97710.03;;;12.72;100.00
29907;BME280;16776;50.958;10.994;2023-08-31T01:36:14;97719.22;;;12.77;100.00
29907;BME280;16776;50.958;10.994;2023-08-31T01:38:45;97716.88;;;12.73;100.00
29907;BME280;16776;50.958;10.994;2023-08-31T01:41:17;97708.66;;;12.65;100.00
29907;BME280;16776;50.958;10.994;2023-08-31T01:43:46;97717.88;;;12.70;100.00
29907;BME280;16776;50.958;10.994;2023-08-31T01:46:15;97711.19;;;12.66;100.00
29907;BME280;16776;50.958;10.994;2023-08-31T01:48:41;97719.06;;;12.63;100.00
29907;BME280;16776;50.958;10.994;2023-08-31T01:51:10;97717.19;;;12.67;100.00
29907;BME280;16776;50.958;10.994;2023-08-31T01:53:37;97720.88;;;12.61;100.00
29907;BME280;16776;50.958;10.994;2023-08-31T01:56:05;97729.53;;;12.60;100.00
29907;BME280;16776;50.958;10.994;2023-08-31T01:58:33;97727.81;;;12.60;100.00
29907;BME280;16776;50.958;10.994;2023-08-31T02:00:59;97737.44;;;12.57;100.00
29907;BME280;16776;50.958;10.994;2023-08-31T02:03:26;97740.97;;;12.54;100.00
29907;BME280;16776;50.958;10.994;2023-08-31T02:05:52;97746.25;;;12.53;100.00
29907;BME280;16776;50.958;10.994;2023-08-31T02:08:19;97738.50;;;12.53;100.00
29907;BME280;16776;50.958;10.994;2023-08-31T02:10:46;97746.25;;;12.53;100.00
29907;BME280;16776;50.958;10.994;2023-08-31T02:13:13;97740.16;;;12.54;100.00
29907;BME280;16776;50.958;10.994;2023-08-31T02:15:42;97741.06;;;12.53;100.00
29907;BME280;16776;50.958;10.994;2023-08-31T02:18:08;97748.19;;;12.48;100.00
29907;BME280;16776;50.958;10.994;2023-08-31T02:20:35;97744.94;;;12.44;100.00
29907;BME280;16776;50.958;10.994;2023-08-31T02:23:02;97741.50;;;12.44;100.00
29907;BME280;16776;50.958;10.994;2023-08-31T02:25:28;97747.59;;;12.43;100.00
29907;BME280;16776;50.958;10.994;2023-08-31T02:27:55;97754.50;;;12.42;100.00
29907;BME280;16776;50.958;10.994;2023-08-31T02:30:21;97755.50;;;12.40;100.00
29907;BME280;16776;50.958;10.994;2023-08-31T02:32:49;97764.16;;;12.39;100.00
29907;BME280;16776;50.958;10.994;2023-08-31T02:35:16;97758.38;;;12.34;100.00
29907;BME280;16776;50.958;10.994;2023-08-31T02:37:43;97757.59;;;12.32;100.00
29907;BME280;16776;50.958;10.994;2023-08-31T02:40:10;97760.19;;;12.32;100.00
29907;BME280;16776;50.958;10.994;2023-08-31T02:42:37;97760.25;;;12.30;100.00
29907;BME280;16776;50.958;10.994;2023-08-31T02:45:04;97760.19;;;12.32;100.00
29907;BME280;16776;50.958;10.994;2023-08-31T02:47:31;97751.59;;;12.31;100.00
29907;BME280;16776;50.958;10.994;2023-08-31T02:49:59;97757.53;;;12.33;100.00
29907;BME280;16776;50.958;10.994;2023-08-31T02:52:26;97767.09;;;12.31;100.00
29907;BME280;16776;50.958;10.994;2023-08-31T02:54:52;97767.09;;;12.31;100.00
29907;BME280;16776;50.958;10.994;2023-08-31T02:57:20;97765.41;;;12.30;100.00
29907;BME280;16776;50.958;10.994;2023-08-31T02:59:49;97761.84;;;12.33;100.00
29907;BME280;16776;50.958;10.994;2023-08-31T03:02:16;97761.38;;;12.24;100.00
29907;BME280;16776;50.958;10.994;2023-08-31T03:04:42;97762.34;;;12.22;100.00
29907;BME280;16776;50.958;10.994;2023-08-31T03:07:10;97770.19;;;12.20;100.00
29907;BME280;16776;50.958;10.994;2023-08-31T03:09:39;97766.16;;;12.15;100.00
29907;BME280;16776;50.958;10.994;2023-08-31T03:12:06;97760.28;;;12.11;100.00
29907;BME280;16776;50.958;10.994;2023-08-31T03:14:32;97763.91;;;12.07;100.00
29907;BME280;16776;50.958;10.994;2023-08-31T03:16:59;97766.69;;;12.03;100.00
29907;BME280;16776;50.958;10.994;2023-08-31T03:19:25;97769.44;;;12.00;100.00
29907;BME280;16776;50.958;10.994;2023-08-31T03:21:52;97770.50;;;11.96;100.00
29907;BME280;16776;50.958;10.994;2023-08-31T03:24:20;97765.38;;;11.94;100.00
29907;BME280;16776;50.958;10.994;2023-08-31T03:26:47;97774.44;;;11.84;100.00
29907;BME280;16776;50.958;10.994;2023-08-31T03:29:13;97765.34;;;11.77;100.00
29907;BME280;16776;50.958;10.994;2023-08-31T03:31:40;97768.16;;;11.71;100.00
29907;BME280;16776;50.958;10.994;2023-08-31T03:34:08;97771.84;;;11.65;100.00
29907;BME280;16776;50.958;10.994;2023-08-31T03:36:35;97775.41;;;11.63;100.00
29907;BME280;16776;50.958;10.994;2023-08-31T03:39:01;97776.38;;;11.60;100.00
29907;BME280;16776;50.958;10.994;2023-08-31T03:41:29;97779.81;;;11.61;100.00
29907;BME280;16776;50.958;10.994;2023-08-31T03:43:56;97774.88;;;11.55;100.00
29907;BME280;16776;50.958;10.994;2023-08-31T03:46:22;97777.53;;;11.53;100.00
29907;BME280;16776;50.958;10.994;2023-08-31T03:48:49;97777.56;;;11.52;100.00
29907;BME280;16776;50.958;10.994;2023-08-31T03:51:16;97778.50;;;11.51;100.00
29907;BME280;16776;50.958;10.994;2023-08-31T03:53:42;97781.16;;;11.49;100.00
29907;BME280;16776;50.958;10.994;2023-08-31T03:56:10;97784.56;;;11.50;100.00
29907;BME280;16776;50.958;10.994;2023-08-31T03:58:38;97786.16;;;11.52;100.00
29907;BME280;16776;50.958;10.994;2023-08-31T04:01:04;97786.38;;;11.48;100.00
29907;BME280;16776;50.958;10.994;2023-08-31T04:03:31;97795.00;;;11.47;100.00
29907;BME280;16776;50.958;10.994;2023-08-31T04:05:58;97794.25;;;11.44;100.00
29907;BME280;16776;50.958;10.994;2023-08-31T04:08:24;97793.47;;;11.42;100.00
29907;BME280;16776;50.958;10.994;2023-08-31T04:10:51;97800.22;;;11.45;100.00
29907;BME280;16776;50.958;10.994;2023-08-31T04:13:17;97798.03;;;11.56;100.00
29907;BME280;16776;50.958;10.994;2023-08-31T04:15:45;97801.44;;;11.77;100.00
29907;BME280;16776;50.958;10.994;2023-08-31T04:18:12;97811.69;;;11.97;100.00
29907;BME280;16776;50.958;10.994;2023-08-31T04:20:38;97806.31;;;12.20;100.00
29907;BME280;16776;50.958;10.994;2023-08-31T04:23:12;97809.56;;;12.43;100.00
29907;BME280;16776;50.958;10.994;2023-08-31T04:25:39;97816.25;;;12.66;100.00
29907;BME280;16776;50.958;10.994;2023-08-31T04:28:07;97817.72;;;12.88;100.00
29907;BME280;16776;50.958;10.994;2023-08-31T04:30:33;97808.91;;;13.10;100.00
29907;BME280;16776;50.958;10.994;2023-08-31T04:33:01;97809.50;;;13.32;100.00
29907;BME280;16776;50.958;10.994;2023-08-31T04:35:29;97809.81;;;13.43;100.00
29907;BME280;16776;50.958;10.994;2023-08-31T04:37:56;97809.50;;;13.49;100.00
29907;BME280;16776;50.958;10.994;2023-08-31T04:40:23;97807.81;;;13.48;100.00
29907;BME280;16776;50.958;10.994;2023-08-31T04:42:50;97801.53;;;13.36;100.00
29907;BME280;16776;50.958;10.994;2023-08-31T04:45:17;97808.59;;;13.33;100.00
29907;BME280;16776;50.958;10.994;2023-08-31T04:47:43;97814.38;;;13.21;100.00
29907;BME280;16776;50.958;10.994;2023-08-31T04:50:11;97825.25;;;13.10;100.00
29907;BME280;16776;50.958;10.994;2023-08-31T04:52:38;97825.22;;;12.93;100.00
29907;BME280;16776;50.958;10.994;2023-08-31T04:55:06;97821.50;;;12.81;100.00
29907;BME280;16776;50.958;10.994;2023-08-31T04:57:33;97822.25;;;12.66;100.00
29907;BME280;16776;50.958;10.994;2023-08-31T05:00:00;97824.47;;;12.55;100.00
29907;BME280;16776;50.958;10.994;2023-08-31T05:02:28;97831.13;;;12.42;100.00
29907;BME280;16776;50.958;10.994;2023-08-31T05:04:55;97831.56;;;12.33;100.00
29907;BME280;16776;50.958;10.994;2023-08-31T05:07:23;97839.59;;;12.27;100.00
29907;BME280;16776;50.958;10.994;2023-08-31T05:09:49;97841.19;;;12.10;100.00
29907;BME280;16776;50.958;10.994;2023-08-31T05:12:16;97842.53;;;12.00;100.00
29907;BME280;16776;50.958;10.994;2023-08-31T05:14:43;97848.00;;;11.93;100.00
29907;BME280;16776;50.958;10.994;2023-08-31T05:17:10;97848.28;;;11.87;100.00
29907;BME280;16776;50.958;10.994;2023-08-31T05:19:36;97851.09;;;11.82;100.00
29907;BME280;16776;50.958;10.994;2023-08-31T05:22:03;97854.56;;;11.81;100.00
29907;BME280;16776;50.958;10.994;2023-08-31T05:24:31;97854.41;;;11.84;100.00
29907;BME280;16776;50.958;10.994;2023-08-31T05:26:58;97866.41;;;11.85;100.00
29907;BME280;16776;50.958;10.994;2023-08-31T05:29:24;97861.97;;;11.89;100.00
29907;BME280;16776;50.958;10.994;2023-08-31T05:31:51;97870.28;;;11.95;100.00
29907;BME280;16776;50.958;10.994;2023-08-31T05:34:20;97875.84;;;12.05;100.00
29907;BME280;16776;50.958;10.994;2023-08-31T05:36:47;97881.72;;;12.08;100.00
29907;BME280;16776;50.958;10.994;2023-08-31T05:39:13;97873.72;;;12.14;100.00
29907;BME280;16776;50.958;10.994;2023-08-31T05:41:43;97875.91;;;12.22;100.00
29907;BME280;16776;50.958;10.994;2023-08-31T05:44:10;97883.59;;;12.23;100.00
29907;BME280;16776;50.958;10.994;2023-08-31T05:46:36;97877.47;;;12.26;100.00
29907;BME280;16776;50.958;10.994;2023-08-31T05:49:03;97878.94;;;12.32;100.00
29907;BME280;16776;50.958;10.994;2023-08-31T05:51:30;97880.56;;;12.34;100.00
29907;BME280;16776;50.958;10.994;2023-08-31T05:53:57;97878.59;;;12.39;100.00
29907;BME280;16776;50.958;10.994;2023-08-31T05:56:23;97879.16;;;12.46;100.00
29907;BME280;16776;50.958;10.994;2023-08-31T05:58:51;97889.75;;;12.58;100.00
29907;BME280;16776;50.958;10.994;2023-08-31T06:01:20;97885.28;;;12.62;100.00
29907;BME280;16776;50.958;10.994;2023-08-31T06:03:47;97888.50;;;12.67;100.00
29907;BME280;16776;50.958;10.994;2023-08-31T06:06:14;97893.59;;;12.69;100.00
29907;BME280;16776;50.958;10.994;2023-08-31T06:08:40;97889.28;;;12.69;100.00
29907;BME280;16776;50.958;10.994;2023-08-31T06:11:08;97892.84;;;12.67;100.00
29907;BME280;16776;50.958;10.994;2023-08-31T06:13:34;97886.97;;;12.63;100.00
29907;BME280;16776;50.958;10.994;2023-08-31T06:16:02;97895.63;;;12.62;100.00
29907;BME280;16776;50.958;10.994;2023-08-31T06:18:29;97899.31;;;12.56;100.00
29907;BME280;16776;50.958;10.994;2023-08-31T06:20:56;97901.06;;;12.56;100.00
29907;BME280;16776;50.958;10.994;2023-08-31T06:23:22;97905.31;;;12.57;100.00
29907;BME280;16776;50.958;10.994;2023-08-31T06:25:49;97905.19;;;12.60;100.00
29907;BME280;16776;50.958;10.994;2023-08-31T06:28:15;97908.34;;;12.67;100.00
29907;BME280;16776;50.958;10.994;2023-08-31T06:30:42;97903.56;;;12.76;100.00
29907;BME280;16776;50.958;10.994;2023-08-31T06:33:13;97908.78;;;12.93;100.00
29907;BME280;16776;50.958;10.994;2023-08-31T06:35:39;97902.28;;;13.03;100.00
29907;BME280;16776;50.958;10.994;2023-08-31T06:38:06;97903.06;;;13.23;100.00
29907;BME280;16776;50.958;10.994;2023-08-31T06:40:33;97897.03;;;13.39;100.00
29907;BME280;16776;50.958;10.994;2023-08-31T06:42:59;97891.97;;;13.55;100.00
29907;BME280;16776;50.958;10.994;2023-08-31T06:45:26;97897.19;;;13.71;100.00
29907;BME280;16776;50.958;10.994;2023-08-31T06:47:53;97901.69;;;13.85;100.00
29907;BME280;16776;50.958;10.994;2023-08-31T06:50:20;97906.28;;;13.95;100.00
29907;BME280;16776;50.958;10.994;2023-08-31T06:52:47;97905.06;;;14.02;100.00
29907;BME280;16776;50.958;10.994;2023-08-31T06:55:14;97906.47;;;14.08;100.00
29907;BME280;16776;50.958;10.994;2023-08-31T06:57:40;97907.94;;;14.13;100.00
29907;BME280;16776;50.958;10.994;2023-08-31T07:00:09;97903.19;;;14.21;100.00
29907;BME280;16776;50.958;10.994;2023-08-31T07:02:39;97899.09;;;14.33;100.00
29907;BME280;16776;50.958;10.994;2023-08-31T07:05:06;97901.28;;;14.41;100.00
29907;BME280;16776;50.958;10.994;2023-08-31T07:07:34;97915.47;;;14.51;100.00
29907;BME280;16776;50.958;10.994;2023-08-31T07:10:01;97906.50;;;14.56;100.00
29907;BME280;16776;50.958;10.994;2023-08-31T07:12:27;97929.44;;;14.64;100.00
29907;BME280;16776;50.958;10.994;2023-08-31T07:14:54;97923.91;;;14.70;100.00
29907;BME280;16776;50.958;10.994;2023-08-31T07:17:20;97926.09;;;14.78;100.00
29907;BME280;16776;50.958;10.994;2023-08-31T07:19:47;97934.44;;;14.83;100.00
29907;BME280;16776;50.958;10.994;2023-08-31T07:22:13;97937.75;;;14.85;100.00
29907;BME280;16776;50.958;10.994;2023-08-31T07:24:41;97947.13;;;14.87;100.00
29907;BME280;16776;50.958;10.994;2023-08-31T07:27:08;97950.00;;;14.83;100.00
29907;BME280;16776;50.958;10.994;2023-08-31T07:29:35;97937.53;;;14.74;100.00
29907;BME280;16776;50.958;10.994;2023-08-31T07:32:02;97946.81;;;14.78;100.00
29907;BME280;16776;50.958;10.994;2023-08-31T07:34:29;97948.81;;;14.73;100.00
29907;BME280;16776;50.958;10.994;2023-08-31T07:36:56;97939.78;;;14.64;100.00
29907;BME280;16776;50.958;10.994;2023-08-31T07:39:23;97952.66;;;14.66;100.00
29907;BME280;16776;50.958;10.994;2023-08-31T07:41:53;97952.50;;;14.69;100.00
29907;BME280;16776;50.958;10.994;2023-08-31T07:44:20;97961.38;;;14.65;100.00
29907;BME280;16776;50.958;10.994;2023-08-31T07:46:47;97966.38;;;14.68;100.00
29907;BME280;16776;50.958;10.994;2023-08-31T07:49:14;97958.00;;;14.63;100.00
29907;BME280;16776;50.958;10.994;2023-08-31T07:51:40;97966.03;;;14.74;100.00
29907;BME280;16776;50.958;10.994;2023-08-31T07:54:07;97966.63;;;14.79;100.00
29907;BME280;16776;50.958;10.994;2023-08-31T07:56:33;97965.53;;;14.83;100.00
29907;BME280;16776;50.958;10.994;2023-08-31T07:59:01;97961.69;;;14.90;100.00
29907;BME280;16776;50.958;10.994;2023-08-31T08:01:28;97966.72;;;14.93;100.00
29907;BME280;16776;50.958;10.994;2023-08-31T08:03:54;97969.16;;;14.96;100.00
29907;BME280;16776;50.958;10.994;2023-08-31T08:06:21;97980.25;;;14.98;100.00
29907;BME280;16776;50.958;10.994;2023-08-31T08:08:47;97979.41;;;14.97;100.00
29907;BME280;16776;50.958;10.994;2023-08-31T08:11:14;97974.22;;;14.97;100.00
29907;BME280;16776;50.958;10.994;2023-08-31T08:13:41;97983.88;;;14.95;100.00
29907;BME280;16776;50.958;10.994;2023-08-31T08:16:08;97987.19;;;14.97;100.00
29907;BME280;16776;50.958;10.994;2023-08-31T08:18:35;97990.94;;;14.92;100.00
29907;BME280;16776;50.958;10.994;2023-08-31T08:21:02;97998.84;;;14.90;100.00
29907;BME280;16776;50.958;10.994;2023-08-31T08:23:28;97990.38;;;14.87;100.00
29907;BME280;16776;50.958;10.994;2023-08-31T08:25:55;97992.06;;;14.88;100.00
29907;BME280;16776;50.958;10.994;2023-08-31T08:28:24;97989.13;;;14.94;100.00
29907;BME280;16776;50.958;10.994;2023-08-31T08:30:51;98000.84;;;15.01;100.00
29907;BME280;16776;50.958;10.994;2023-08-31T08:33:19;97986.63;;;15.08;100.00
29907;BME280;16776;50.958;10.994;2023-08-31T08:35:45;97988.78;;;15.16;100.00
29907;BME280;16776;50.958;10.994;2023-08-31T08:38:12;97994.47;;;15.22;100.00
29907;BME280;16776;50.958;10.994;2023-08-31T08:40:39;97988.94;;;15.28;100.00
29907;BME280;16776;50.958;10.994;2023-08-31T08:43:06;97987.88;;;15.32;100.00
29907;BME280;16776;50.958;10.994;2023-08-31T08:45:36;97985.00;;;15.37;100.00
29907;BME280;16776;50.958;10.994;2023-08-31T08:48:05;97992.06;;;15.35;100.00
29907;BME280;16776;50.958;10.994;2023-08-31T08:50:35;97993.91;;;15.33;100.00
29907;BME280;16776;50.958;10.994;2023-08-31T08:53:03;97987.44;;;15.24;100.00
29907;BME280;16776;50.958;10.994;2023-08-31T08:55:29;97987.63;;;15.21;100.00
29907;BME280;16776;50.958;10.994;2023-08-31T08:57:58;97988.09;;;15.28;100.00
29907;BME280;16776;50.958;10.994;2023-08-31T09:00:26;97985.94;;;15.36;100.00
29907;BME280;16776;50.958;10.994;2023-08-31T09:02:53;97985.00;;;15.53;100.00
29907;BME280;16776;50.958;10.994;2023-08-31T09:05:20;97980.41;;;15.72;100.00
29907;BME280;16776;50.958;10.994;2023-08-31T09:08:04;97978.69;;;16.01;100.00
29907;BME280;16776;50.958;10.994;2023-08-31T09:10:35;97984.00;;;16.13;100.00
29907;BME280;16776;50.958;10.994;2023-08-31T09:13:05;97978.94;;;16.26;100.00
29907;BME280;16776;50.958;10.994;2023-08-31T09:15:39;97985.75;;;16.43;100.00
29907;BME280;16776;50.958;10.994;2023-08-31T09:18:05;97987.38;;;16.58;100.00
29907;BME280;16776;50.958;10.994;2023-08-31T09:20:42;97993.59;;;16.84;100.00
29907;BME280;16776;50.958;10.994;2023-08-31T09:23:11;97988.84;;;16.90;100.00
29907;BME280;16776;50.958;10.994;2023-08-31T09:25:41;97989.06;;;17.02;100.00
29907;BME280;16776;50.958;10.994;2023-08-31T09:28:09;97995.28;;;16.99;99.91
29907;BME280;16776;50.958;10.994;2023-08-31T09:30:35;98000.47;;;16.99;100.00
29907;BME280;16776;50.958;10.994;2023-08-31T09:33:03;97998.72;;;16.99;100.00
29907;BME280;16776;50.958;10.994;2023-08-31T09:35:30;98007.25;;;17.02;100.00
29907;BME280;16776;50.958;10.994;2023-08-31T09:37:57;97997.31;;;17.08;99.73
29907;BME280;16776;50.958;10.994;2023-08-31T09:40:25;97993.91;;;17.20;99.95
29907;BME280;16776;50.958;10.994;2023-08-31T09:42:52;97998.44;;;17.31;99.55
29907;BME280;16776;50.958;10.994;2023-08-31T09:45:25;97992.03;;;17.49;100.00
29907;BME280;16776;50.958;10.994;2023-08-31T09:47:52;98004.47;;;17.58;99.67
29907;BME280;16776;50.958;10.994;2023-08-31T09:50:18;97991.38;;;17.72;99.98
29907;BME280;16776;50.958;10.994;2023-08-31T09:52:46;97998.00;;;17.91;99.38
29907;BME280;16776;50.958;10.994;2023-08-31T09:55:14;98010.22;;;18.03;98.80
29907;BME280;16776;50.958;10.994;2023-08-31T09:57:43;98002.31;;;18.17;98.46
29907;BME280;16776;50.958;10.994;2023-08-31T10:00:11;97996.28;;;18.29;98.68
29907;BME280;16776;50.958;10.994;2023-08-31T10:02:41;97998.75;;;18.43;98.70
29907;BME280;16776;50.958;10.994;2023-08-31T10:05:08;98000.56;;;18.55;97.32
29907;BME280;16776;50.958;10.994;2023-08-31T10:07:35;98000.66;;;18.67;96.42
29907;BME280;16776;50.958;10.994;2023-08-31T10:10:04;98002.09;;;18.71;95.77
29907;BME280;16776;50.958;10.994;2023-08-31T10:12:31;97999.47;;;18.71;96.32
29907;BME280;16776;50.958;10.994;2023-08-31T10:15:00;97998.22;;;18.76;96.28
29907;BME280;16776;50.958;10.994;2023-08-31T10:17:28;97994.56;;;18.79;96.06
29907;BME280;16776;50.958;10.994;2023-08-31T10:19:55;97996.84;;;18.83;96.16
29907;BME280;16776;50.958;10.994;2023-08-31T10:22:22;97994.63;;;18.90;95.62
29907;BME280;16776;50.958;10.994;2023-08-31T10:24:59;97998.69;;;19.07;96.14
29907;BME280;16776;50.958;10.994;2023-08-31T10:27:27;98003.91;;;19.07;94.87
29907;BME280;16776;50.958;10.994;2023-08-31T10:29:53;97986.97;;;19.12;94.90
29907;BME280;16776;50.958;10.994;2023-08-31T10:32:21;97998.66;;;19.19;94.24
29907;BME280;16776;50.958;10.994;2023-08-31T10:35:08;98001.34;;;19.30;95.04
29907;BME280;16776;50.958;10.994;2023-08-31T10:37:34;97998.53;;;19.21;93.50
29907;BME280;16776;50.958;10.994;2023-08-31T10:40:08;97991.81;;;19.29;94.39
29907;BME280;16776;50.958;10.994;2023-08-31T10:42:44;97992.66;;;19.30;93.59
29907;BME280;16776;50.958;10.994;2023-08-31T10:45:11;97973.06;;;19.12;93.37
29907;BME280;16776;50.958;10.994;2023-08-31T10:47:40;97989.72;;;19.34;93.16
29907;BME280;16776;50.958;10.994;2023-08-31T10:50:19;97984.66;;;19.44;93.36
29907;BME280;16776;50.958;10.994;2023-08-31T10:52:46;97982.50;;;19.38;92.40
29907;BME280;16776;50.958;10.994;2023-08-31T10:55:13;97986.44;;;19.44;92.16
29907;BME280;16776;50.958;10.994;2023-08-31T10:57:40;97980.03;;;19.48;90.93
29907;BME280;16776;50.958;10.994;2023-08-31T11:00:07;97993.59;;;19.53;91.56
29907;BME280;16776;50.958;10.994;2023-08-31T11:02:38;97991.50;;;19.58;91.51
29907;BME280;16776;50.958;10.994;2023-08-31T11:05:09;97985.31;;;19.59;91.27
29907;BME280;16776;50.958;10.994;2023-08-31T11:07:37;97988.75;;;19.59;90.86
29907;BME280;16776;50.958;10.994;2023-08-31T11:10:12;97982.97;;;19.67;91.37
29907;BME280;16776;50.958;10.994;2023-08-31T11:12:40;97982.00;;;19.57;91.05
29907;BME280;16776;50.958;10.994;2023-08-31T11:15:07;97988.88;;;19.58;90.83
29907;BME280;16776;50.958;10.994;2023-08-31T11:17:34;97979.88;;;19.62;90.62
29907;BME280;16776;50.958;10.994;2023-08-31T11:20:02;97984.38;;;19.71;90.86
29907;BME280;16776;50.958;10.994;2023-08-31T11:22:30;97987.72;;;19.73;90.40
29907;BME280;16776;50.958;10.994;2023-08-31T11:24:57;97981.09;;;19.80;89.93
29907;BME280;16776;50.958;10.994;2023-08-31T11:27:23;97980.75;;;19.85;88.72
29907;BME280;16776;50.958;10.994;2023-08-31T11:29:51;97987.75;;;19.84;89.04
29907;BME280;16776;50.958;10.994;2023-08-31T11:32:17;97988.94;;;19.80;88.89
29907;BME280;16776;50.958;10.994;2023-08-31T11:34:45;97988.56;;;19.73;88.50
29907;BME280;16776;50.958;10.994;2023-08-31T11:37:13;98003.75;;;19.68;89.40
29907;BME280;16776;50.958;10.994;2023-08-31T11:39:42;97994.91;;;19.58;88.43
29907;BME280;16776;50.958;10.994;2023-08-31T11:42:16;97990.97;;;19.53;89.14
29907;BME280;16776;50.958;10.994;2023-08-31T11:44:43;97994.97;;;19.46;89.52
29907;BME280;16776;50.958;10.994;2023-08-31T11:47:10;97989.06;;;19.44;89.34
29907;BME280;16776;50.958;10.994;2023-08-31T11:49:39;97989.25;;;19.41;89.06
29907;BME280;16776;50.958;10.994;2023-08-31T11:52:06;97994.94;;;19.34;89.34
29907;BME280;16776;50.958;10.994;2023-08-31T11:54:36;97999.00;;;19.39;89.60
29907;BME280;16776;50.958;10.994;2023-08-31T11:57:06;97987.19;;;19.33;89.77
29907;BME280;16776;50.958;10.994;2023-08-31T11:59:34;97993.72;;;19.27;89.74
29907;BME280;16776;50.958;10.994;2023-08-31T12:02:01;97989.56;;;19.25;89.57
29907;BME280;16776;50.958;10.994;2023-08-31T12:04:28;97993.84;;;19.26;89.86
29907;BME280;16776;50.958;10.994;2023-08-31T12:07:01;97985.22;;;19.36;89.82
29907;BME280;16776;50.958;10.994;2023-08-31T12:09:30;97992.31;;;19.34;88.79
29907;BME280;16776;50.958;10.994;2023-08-31T12:11:58;97983.84;;;19.44;88.06
29907;BME280;16776;50.958;10.994;2023-08-31T12:14:26;97989.75;;;19.46;88.41
29907;BME280;16776;50.958;10.994;2023-08-31T12:17:00;97987.22;;;19.57;87.94
29907;BME280;16776;50.958;10.994;2023-08-31T12:19:28;97996.44;;;19.50;87.97
29907;BME280;16776;50.958;10.994;2023-08-31T12:21:55;97987.88;;;19.48;87.67
29907;BME280;16776;50.958;10.994;2023-08-31T12:24:22;97979.31;;;19.46;88.24
29907;BME280;16776;50.958;10.994;2023-08-31T12:26:48;97980.97;;;19.47;88.62
29907;BME280;16776;50.958;10.994;2023-08-31T12:29:17;97986.47;;;19.55;87.72
29907;BME280;16776;50.958;10.994;2023-08-31T12:31:43;97985.53;;;19.56;86.92
29907;BME280;16776;50.958;10.994;2023-08-31T12:34:10;97986.38;;;19.56;86.22
29907;BME280;16776;50.958;10.994;2023-08-31T12:36:37;97989.44;;;19.50;85.72
29907;BME280;16776;50.958;10.994;2023-08-31T12:39:06;97987.88;;;19.48;85.99
29907;BME280;16776;50.958;10.994;2023-08-31T12:41:35;97980.72;;;19.39;84.88
29907;BME280;16776;50.958;10.994;2023-08-31T12:44:02;97985.81;;;19.40;84.88
29907;BME280;16776;50.958;10.994;2023-08-31T12:46:31;97993.78;;;19.39;85.66